Time;durP1;ratioP1;P1;durP2;ratioP2;P2;SDS_P1;SDS_P2;PMS_P1;PMS_P2;Temp;Humidity;BMP_temperature;BMP_pressure;BME280_temperature;BME280_humidity;BME280_pressure;Samples;Min_cycle;Max_cycle;Signal;HPM_P1;HPM_P2
2024/03/19 00:01:44;;;;;;;12.85;3.85;;;7.90;99.90;;;;;;5005468;28;20033;-80
2024/03/19 00:04:10;;;;;;;11.70;3.58;;;7.90;99.90;;;;;;5005089;28;20022;-80
2024/03/19 00:06:36;;;;;;;11.05;3.80;;;7.90;99.90;;;;;;5005354;28;20076;-80
2024/03/19 00:09:03;;;;;;;13.13;4.07;;;8.00;99.90;;;;;;5002902;28;20015;-80
2024/03/19 00:11:29;;;;;;;11.90;4.05;;;8.10;99.90;;;;;;5003668;28;20015;-80
2024/03/19 00:13:56;;;;;;;10.32;3.83;;;8.10;99.90;;;;;;5004891;28;20041;-80
2024/03/19 00:16:21;;;;;;;13.18;4.18;;;8.20;99.90;;;;;;5003837;28;20023;-79
2024/03/19 00:18:47;;;;;;;14.15;4.15;;;8.20;99.90;;;;;;5002623;28;20042;-80
2024/03/19 00:21:12;;;;;;;13.80;4.25;;;8.20;99.90;;;;;;5001820;28;20137;-80
2024/03/19 00:23:38;;;;;;;14.02;4.63;;;8.30;99.90;;;;;;5002656;28;20390;-80
2024/03/19 00:26:07;;;;;;;10.57;4.38;;;8.40;99.90;;;;;;5003575;28;20026;-80
2024/03/19 00:28:36;;;;;;;12.43;5.25;;;8.40;99.90;;;;;;5005124;28;20041;-80
2024/03/19 00:31:02;;;;;;;11.70;4.22;;;8.40;99.90;;;;;;5003839;28;20026;-80
2024/03/19 00:33:28;;;;;;;12.05;4.78;;;8.40;99.90;;;;;;5004930;28;20034;-79
2024/03/19 00:35:55;;;;;;;17.77;5.40;;;8.40;99.90;;;;;;5004190;28;20059;-80
2024/03/19 00:38:22;;;;;;;9.18;3.92;;;8.40;99.90;;;;;;5003609;28;20555;-80
2024/03/19 00:40:48;;;;;;;14.80;5.20;;;8.50;99.90;;;;;;5003635;28;20433;-80
2024/03/19 00:43:13;;;;;;;13.40;3.60;;;8.50;99.90;;;;;;5003122;28;20081;-80
2024/03/19 00:45:39;;;;;;;15.45;4.25;;;8.50;99.90;;;;;;5004804;28;20029;-80
2024/03/19 00:48:05;;;;;;;12.38;4.88;;;8.50;99.90;;;;;;5002386;28;20026;-80
2024/03/19 00:50:31;;;;;;;15.90;4.63;;;8.60;99.90;;;;;;5002516;28;20490;-80
2024/03/19 00:52:57;;;;;;;12.75;4.78;;;8.60;99.90;;;;;;5003275;28;20108;-80
2024/03/19 00:55:22;;;;;;;12.15;3.95;;;8.60;99.90;;;;;;5002609;28;20030;-80
2024/03/19 00:57:48;;;;;;;18.90;5.10;;;8.60;99.90;;;;;;5002864;28;20030;-80
2024/03/19 01:00:14;;;;;;;11.82;4.15;;;8.70;99.90;;;;;;5001338;28;20026;-80
2024/03/19 01:02:47;;;;;;;10.98;4.10;;;8.70;99.90;;;;;;5000970;28;20462;-80
2024/03/19 01:05:13;;;;;;;15.05;4.40;;;8.70;99.90;;;;;;5000429;28;20014;-80
2024/03/19 01:07:40;;;;;;;10.20;4.00;;;8.80;99.90;;;;;;5001655;28;20402;-80
2024/03/19 01:10:09;;;;;;;12.73;3.92;;;8.80;99.90;;;;;;5002191;28;20022;-80
2024/03/19 01:12:36;;;;;;;13.15;4.82;;;8.80;99.90;;;;;;5001326;28;20038;-80
2024/03/19 01:15:02;;;;;;;10.80;4.95;;;8.90;99.90;;;;;;5002621;28;20386;-79
2024/03/19 01:17:27;;;;;;;10.25;4.35;;;8.90;99.90;;;;;;5000264;28;20026;-80
2024/03/19 01:19:56;;;;;;;11.93;4.10;;;9.00;99.90;;;;;;5002007;28;20117;-80
2024/03/19 01:22:21;;;;;;;16.58;4.13;;;9.00;99.90;;;;;;5003892;28;20033;-80
2024/03/19 01:24:47;;;;;;;8.13;4.07;;;9.10;99.90;;;;;;5002877;28;20018;-80
2024/03/19 01:27:12;;;;;;;13.30;4.65;;;9.10;99.90;;;;;;5002775;28;20045;-79
2024/03/19 01:29:38;;;;;;;11.40;4.38;;;9.10;99.90;;;;;;5001997;28;20114;-79
2024/03/19 01:32:04;;;;;;;12.00;4.40;;;9.10;99.90;;;;;;5001396;28;20022;-79
2024/03/19 01:34:30;;;;;;;11.70;3.58;;;9.10;99.90;;;;;;5001860;28;20028;-80
2024/03/19 01:36:56;;;;;;;11.63;4.93;;;9.10;99.90;;;;;;5000736;28;20082;-80
2024/03/19 01:39:22;;;;;;;10.80;4.35;;;9.20;99.90;;;;;;5000345;28;20021;-80
2024/03/19 01:41:54;;;;;;;9.10;4.50;;;9.20;99.90;;;;;;5001150;28;20033;-80
2024/03/19 01:44:21;;;;;;;11.00;4.25;;;9.20;99.90;;;;;;5000863;28;20077;-79
2024/03/19 01:46:47;;;;;;;10.15;4.00;;;9.20;99.90;;;;;;5000853;28;20065;-79
2024/03/19 01:49:14;;;;;;;21.70;5.13;;;9.20;99.90;;;;;;5000879;28;20022;-80
2024/03/19 01:51:41;;;;;;;9.88;3.97;;;9.20;99.90;;;;;;5000380;28;20029;-79
2024/03/19 01:54:09;;;;;;;10.85;3.55;;;9.20;99.90;;;;;;5000159;28;20045;-80
2024/03/19 01:56:35;;;;;;;12.35;3.67;;;;;;;;;;5001298;28;20030;-79
2024/03/19 01:59:01;;;;;;;9.45;3.83;;;9.20;99.90;;;;;;5000214;28;20061;-79
2024/03/19 02:01:26;;;;;;;11.60;4.15;;;9.60;99.90;;;;;;4998832;28;20567;-80
2024/03/19 02:03:52;;;;;;;9.13;2.88;;;9.30;99.90;;;;;;5001798;28;20105;-79
2024/03/19 02:06:19;;;;;;;14.27;3.08;;;9.30;99.90;;;;;;5001079;28;20025;-80
2024/03/19 02:09:05;;;;;;;10.85;2.65;;;9.30;99.90;;;;;;5001513;28;20019;-80
2024/03/19 02:11:31;;;;;;;9.05;3.22;;;9.40;99.90;;;;;;5000972;28;20457;-80
2024/03/19 02:13:58;;;;;;;10.43;3.05;;;9.40;99.90;;;;;;5000506;28;20117;-80
2024/03/19 02:16:24;;;;;;;9.68;3.38;;;9.50;99.90;;;;;;4998853;28;20102;-80
2024/03/19 02:19:01;;;;;;;6.80;2.78;;;9.40;99.90;;;;;;5000908;28;20484;-80
2024/03/19 02:21:28;;;;;;;6.80;2.72;;;9.40;99.90;;;;;;5002263;28;20050;-80
2024/03/19 02:24:01;;;;;;;8.60;2.97;;;9.50;99.90;;;;;;5002102;28;20020;-80
2024/03/19 02:26:30;;;;;;;5.93;2.53;;;9.60;99.90;;;;;;5001005;28;20019;-80
2024/03/19 02:28:59;;;;;;;5.47;2.72;;;9.60;99.90;;;;;;5001441;28;20017;-80
2024/03/19 02:31:27;;;;;;;9.00;2.45;;;9.60;99.90;;;;;;5000636;28;20037;-85
2024/03/19 02:33:56;;;;;;;10.90;3.33;;;9.60;99.90;;;;;;5000904;28;20565;-85
2024/03/19 02:36:25;;;;;;;11.43;2.88;;;9.70;99.90;;;;;;5001391;28;20026;-86
2024/03/19 02:38:51;;;;;;;9.10;2.85;;;;;;;;;;5001141;28;20023;-85
2024/03/19 02:41:17;;;;;;;11.50;2.78;;;;;;;;;;5000129;28;20030;-85
2024/03/19 02:43:43;;;;;;;10.00;2.30;;;;;;;;;;4999909;28;20569;-85
2024/03/19 02:46:09;;;;;;;7.07;2.60;;;9.70;99.90;;;;;;5000937;28;20065;-85
2024/03/19 02:48:35;;;;;;;8.55;2.45;;;;;;;;;;5001194;28;20015;-86
2024/03/19 02:51:01;;;;;;;14.00;2.55;;;9.80;99.90;;;;;;5000561;28;20026;-85
2024/03/19 02:53:26;;;;;;;5.90;2.67;;;9.70;99.90;;;;;;5000629;28;20037;-84
2024/03/19 02:55:52;;;;;;;8.98;2.72;;;9.80;99.90;;;;;;5000553;28;20026;-85
2024/03/19 02:58:19;;;;;;;8.23;2.55;;;9.80;99.90;;;;;;4999896;28;20494;-85
2024/03/19 03:00:45;;;;;;;13.70;3.15;;;9.90;99.90;;;;;;4999587;28;20089;-84
2024/03/19 03:03:11;;;;;;;7.03;2.42;;;;;;;;;;5001685;28;20026;-85
2024/03/19 03:05:37;;;;;;;10.07;2.85;;;;;;;;;;5001010;28;20037;-85
2024/03/19 03:08:04;;;;;;;7.93;2.83;;;9.90;99.90;;;;;;4999653;28;20027;-85
2024/03/19 03:10:31;;;;;;;9.45;2.78;;;9.90;99.90;;;;;;4998946;28;20015;-85
2024/03/19 03:12:56;;;;;;;7.55;1.90;;;10.00;99.90;;;;;;5000485;28;20521;-86
2024/03/19 03:15:23;;;;;;;8.88;2.85;;;10.00;99.90;;;;;;4998976;28;20030;-85
2024/03/19 03:17:49;;;;;;;7.07;2.15;;;;;;;;;;5001384;28;20402;-85
2024/03/19 03:20:15;;;;;;;6.88;2.35;;;10.00;99.90;;;;;;5002276;28;20038;-85
2024/03/19 03:22:41;;;;;;;14.45;2.78;;;10.10;99.90;;;;;;5000652;28;20033;-85
2024/03/19 03:25:11;;;;;;;10.18;2.85;;;10.00;99.90;;;;;;5000336;28;20022;-85
2024/03/19 03:27:40;;;;;;;6.45;2.25;;;10.10;99.90;;;;;;5003421;28;20072;-85
2024/03/19 03:30:13;;;;;;;5.75;1.77;;;10.10;99.90;;;;;;5007416;28;20018;-85
2024/03/19 03:32:40;;;;;;;13.88;2.83;;;10.10;99.90;;;;;;5007462;28;20035;-85
2024/03/19 03:35:07;;;;;;;6.78;1.92;;;10.20;99.90;;;;;;5008120;28;20007;-84
2024/03/19 03:37:34;;;;;;;7.85;1.90;;;10.20;99.90;;;;;;5006915;28;20046;-85
2024/03/19 03:40:00;;;;;;;11.23;2.45;;;;;;;;;;5006971;28;20031;-84
2024/03/19 03:42:27;;;;;;;5.60;1.27;;;10.20;99.90;;;;;;5007475;28;20157;-85
2024/03/19 03:44:53;;;;;;;7.35;1.80;;;10.20;99.90;;;;;;5009220;28;20006;-85
2024/03/19 03:47:18;;;;;;;8.77;1.35;;;10.20;99.90;;;;;;5005044;28;20029;-85
2024/03/19 03:49:47;;;;;;;5.80;1.85;;;10.20;99.90;;;;;;5004964;28;20022;-85
2024/03/19 03:52:13;;;;;;;8.40;1.70;;;10.20;99.90;;;;;;5008441;28;20027;-85
2024/03/19 03:54:39;;;;;;;2.75;1.02;;;10.20;99.90;;;;;;5005905;28;20029;-85
2024/03/19 03:57:04;;;;;;;5.55;2.08;;;10.30;99.90;;;;;;5007001;28;20023;-85
2024/03/19 03:59:31;;;;;;;7.75;2.58;;;;;;;;;;5004962;28;20038;-84
2024/03/19 04:01:57;;;;;;;6.65;1.92;;;;;;;;;;5004549;28;20022;-84
2024/03/19 04:04:22;;;;;;;6.65;1.35;;;10.30;99.90;;;;;;5005192;28;20536;-84
2024/03/19 04:06:51;;;;;;;8.60;1.58;;;10.30;99.90;;;;;;5005660;28;20029;-85
2024/03/19 04:09:17;;;;;;;7.22;1.75;;;10.30;99.90;;;;;;5004410;28;20030;-85
2024/03/19 04:11:42;;;;;;;8.80;1.58;;;10.30;99.90;;;;;;5004536;28;20057;-85
2024/03/19 04:14:08;;;;;;;11.18;2.38;;;10.30;99.90;;;;;;5004917;28;20037;-85
2024/03/19 04:16:33;;;;;;;6.50;1.52;;;10.30;99.90;;;;;;5005085;28;20117;-84
2024/03/19 04:18:59;;;;;;;8.90;2.10;;;10.30;99.90;;;;;;5005055;28;20022;-85
2024/03/19 04:21:25;;;;;;;6.35;1.58;;;10.30;99.90;;;;;;5005740;28;20036;-85
2024/03/19 04:23:51;;;;;;;7.63;2.15;;;10.30;99.90;;;;;;5004927;28;20026;-85
2024/03/19 04:26:16;;;;;;;8.23;1.90;;;10.40;99.90;;;;;;5004957;28;20053;-85
2024/03/19 04:28:42;;;;;;;5.50;1.83;;;10.30;99.90;;;;;;5003615;28;20045;-85
2024/03/19 04:31:09;;;;;;;6.10;2.38;;;;;;;;;;5004375;28;20031;-85
2024/03/19 04:33:34;;;;;;;8.13;2.67;;;10.40;99.90;;;;;;5003695;28;20060;-85
2024/03/19 04:36:00;;;;;;;5.95;1.73;;;10.30;99.90;;;;;;5004509;28;20037;-84
2024/03/19 04:38:26;;;;;;;6.85;1.95;;;10.40;99.90;;;;;;5004704;28;20022;-85
2024/03/19 04:40:51;;;;;;;6.55;1.80;;;10.30;99.90;;;;;;5000494;28;20026;-85
2024/03/19 04:43:17;;;;;;;6.40;2.15;;;;;;;;;;5002511;28;20026;-84
2024/03/19 04:45:43;;;;;;;7.80;2.08;;;10.30;99.90;;;;;;5002904;28;20038;-85
2024/03/19 04:48:09;;;;;;;8.63;1.95;;;;;;;;;;5002971;28;20023;-85
2024/03/19 04:50:35;;;;;;;8.35;1.80;;;10.30;99.90;;;;;;5000167;28;20026;-86
2024/03/19 04:53:01;;;;;;;7.45;2.25;;;;;;;;;;5000568;28;20030;-85
2024/03/19 04:55:27;;;;;;;5.40;2.22;;;10.30;99.90;;;;;;5002402;28;20533;-85
2024/03/19 04:57:52;;;;;;;7.20;1.90;;;10.30;99.90;;;;;;5000902;28;20022;-85
2024/03/19 05:00:18;;;;;;;11.98;2.85;;;10.30;99.90;;;;;;5000651;28;20030;-85
2024/03/19 05:02:44;;;;;;;8.55;1.95;;;10.30;99.90;;;;;;5002919;28;20391;-84
2024/03/19 05:05:11;;;;;;;5.72;2.15;;;10.30;99.90;;;;;;5002381;28;20092;-85
2024/03/19 05:07:37;;;;;;;5.40;1.88;;;10.50;99.90;;;;;;5001026;28;20022;-85
2024/03/19 05:10:03;;;;;;;9.52;2.33;;;;;;;;;;4999758;28;20023;-85
2024/03/19 05:12:29;;;;;;;7.80;2.10;;;10.30;99.90;;;;;;5000856;28;20553;-85
2024/03/19 05:14:55;;;;;;;6.75;2.60;;;10.30;99.90;;;;;;5003739;28;20038;-84
2024/03/19 05:17:20;;;;;;;8.43;2.03;;;10.30;99.90;;;;;;5002485;28;20456;-85
2024/03/19 05:19:46;;;;;;;5.25;1.55;;;10.80;99.90;;;;;;5001327;28;20060;-85
2024/03/19 05:22:11;;;;;;;6.80;1.90;;;10.30;99.90;;;;;;5000997;28;20022;-85
2024/03/19 05:24:37;;;;;;;5.97;2.22;;;10.30;99.90;;;;;;4999671;28;20071;-84
2024/03/19 05:27:03;;;;;;;8.85;2.30;;;10.30;99.90;;;;;;5000286;28;20505;-85
2024/03/19 05:29:29;;;;;;;9.48;2.70;;;;;;;;;;5001683;28;20069;-86
2024/03/19 05:31:54;;;;;;;10.18;2.00;;;10.30;99.90;;;;;;5003444;28;20066;-86
2024/03/19 05:34:20;;;;;;;6.13;2.03;;;;;;;;;;5001925;28;20102;-85
2024/03/19 05:36:46;;;;;;;10.02;3.08;;;10.30;99.90;;;;;;5002123;28;20037;-85
2024/03/19 05:39:12;;;;;;;8.05;2.53;;;10.30;99.90;;;;;;5002307;28;20034;-85
2024/03/19 05:41:41;;;;;;;9.70;2.80;;;10.20;99.90;;;;;;5001161;28;20026;-85
2024/03/19 05:44:07;;;;;;;;;;;10.30;99.90;;;;;;5002240;28;20398;-85
2024/03/19 05:46:33;;;;;;;7.20;2.25;;;10.30;99.90;;;;;;5001158;28;19906;-85
2024/03/19 05:48:59;;;;;;;10.13;3.67;;;10.30;99.90;;;;;;5000784;28;20049;-85
2024/03/19 05:51:24;;;;;;;5.50;1.80;;;10.20;99.90;;;;;;5002912;28;20041;-85
2024/03/19 05:53:50;;;;;;;5.90;2.58;;;10.30;99.90;;;;;;4999362;28;20053;-85
2024/03/19 05:56:15;;;;;;;6.32;2.30;;;10.20;99.90;;;;;;4998558;28;20117;-86
2024/03/19 05:58:41;;;;;;;6.07;1.90;;;10.20;99.90;;;;;;4999447;28;20470;-85
2024/03/19 06:01:07;;;;;;;5.50;2.25;;;10.20;99.90;;;;;;5002939;28;20030;-83
2024/03/19 06:03:33;;;;;;;11.20;3.08;;;;;;;;;;5002944;28;20026;-86
2024/03/19 06:06:02;;;;;;;9.02;3.80;;;10.20;99.90;;;;;;5002349;28;20046;-84
2024/03/19 06:08:28;;;;;;;8.73;3.00;;;10.20;99.90;;;;;;5002920;28;20038;-84
2024/03/19 06:10:54;;;;;;;7.65;3.50;;;10.20;99.90;;;;;;5002568;28;20541;-83
2024/03/19 06:13:20;;;;;;;10.82;2.88;;;11.20;99.90;;;;;;5002128;28;20033;-83
2024/03/19 06:15:46;;;;;;;8.77;3.25;;;10.20;99.90;;;;;;5003502;28;20394;-84
2024/03/19 06:18:12;;;;;;;7.85;2.97;;;10.20;99.90;;;;;;5002984;28;20034;-84
2024/03/19 06:20:37;;;;;;;6.90;3.10;;;10.20;99.90;;;;;;5003275;28;20074;-84
2024/03/19 06:23:03;;;;;;;6.93;3.20;;;10.20;99.90;;;;;;5003011;28;20041;-83
2024/03/19 06:25:29;;;;;;;6.70;2.95;;;10.30;99.90;;;;;;5002045;28;20015;-84
2024/03/19 06:27:55;;;;;;;10.98;3.90;;;10.30;99.90;;;;;;5001223;28;20041;-83
2024/03/19 06:30:21;;;;;;;8.85;4.00;;;;;;;;;;5004695;28;20029;-83
2024/03/19 06:32:47;;;;;;;11.73;3.92;;;;;;;;;;5022423;28;20057;-84
2024/03/19 06:35:14;;;;;;;12.38;4.07;;;10.30;99.90;;;;;;5020229;28;20045;-83
2024/03/19 06:37:41;;;;;;;16.35;5.93;;;10.30;99.90;;;;;;5022388;28;20022;-84
2024/03/19 06:40:10;;;;;;;10.88;4.05;;;;;;;;;;5022257;28;20026;-83
2024/03/19 06:42:38;;;;;;;11.68;4.03;;;10.40;99.90;;;;;;5022879;28;20034;-83
2024/03/19 06:45:04;;;;;;;10.85;4.05;;;10.40;99.90;;;;;;5021788;28;20025;-84
2024/03/19 06:47:30;;;;;;;12.77;4.20;;;10.40;99.90;;;;;;5021058;28;20036;-82
2024/03/19 06:49:56;;;;;;;12.10;4.72;;;10.40;99.90;;;;;;5020828;28;20053;-84
2024/03/19 06:52:22;;;;;;;13.10;4.28;;;10.40;99.90;;;;;;5020728;28;20382;-84
2024/03/19 06:54:48;;;;;;;14.95;3.95;;;10.40;99.90;;;;;;5020313;28;20022;-82
2024/03/19 06:57:13;;;;;;;13.35;4.70;;;10.40;99.90;;;;;;5021078;28;20500;-83
2024/03/19 06:59:39;;;;;;;10.70;4.43;;;;;;;;;;5019857;28;20026;-84
2024/03/19 07:02:07;;;;;;;11.75;4.32;;;10.40;99.90;;;;;;5021082;28;20393;-84
2024/03/19 07:04:34;;;;;;;12.40;3.95;;;10.50;99.90;;;;;;5021671;28;20046;-82
2024/03/19 07:07:00;;;;;;;8.48;3.72;;;;;;;;;;5022141;28;20025;-83
2024/03/19 07:09:27;;;;;;;8.40;3.05;;;10.50;99.90;;;;;;5022499;28;20045;-79
2024/03/19 07:11:52;;;;;;;11.25;4.05;;;10.60;99.90;;;;;;5028393;28;20018;-79
2024/03/19 07:14:18;;;;;;;9.55;3.92;;;10.60;99.90;;;;;;5027859;28;20030;-79
2024/03/19 07:16:45;;;;;;;9.73;3.17;;;10.60;99.90;;;;;;5026492;28;20025;-80
2024/03/19 07:19:11;;;;;;;9.43;3.05;;;;;;;;;;5025263;28;20030;-79
2024/03/19 07:21:37;;;;;;;8.63;3.35;;;10.70;99.90;;;;;;5026468;28;20030;-79
2024/03/19 07:24:03;;;;;;;8.13;3.42;;;10.80;99.90;;;;;;5026280;28;20018;-79
2024/03/19 07:26:29;;;;;;;7.82;2.53;;;10.80;99.90;;;;;;5025570;28;20053;-80
2024/03/19 07:28:54;;;;;;;8.07;2.63;;;10.80;99.90;;;;;;5023964;28;20022;-79
2024/03/19 07:31:20;;;;;;;6.75;2.53;;;10.90;99.90;;;;;;5024837;28;20419;-79
2024/03/19 07:33:46;;;;;;;7.03;2.58;;;11.00;99.90;;;;;;5025429;28;20045;-79
2024/03/19 07:36:13;;;;;;;9.57;2.72;;;;;;;;;;5025661;28;20173;-79
2024/03/19 07:38:40;;;;;;;8.63;2.15;;;11.10;99.90;;;;;;5025143;28;20034;-80
2024/03/19 07:41:07;;;;;;;12.85;2.25;;;;;;;;;;5027128;28;20014;-79
2024/03/19 07:43:33;;;;;;;6.93;1.85;;;11.20;99.90;;;;;;5025469;28;20041;-79
2024/03/19 07:45:59;;;;;;;5.13;1.60;;;11.40;99.90;;;;;;5025407;28;20018;-79
2024/03/19 07:48:25;;;;;;;6.75;1.70;;;11.40;99.90;;;;;;5027791;28;20025;-79
2024/03/19 07:50:51;;;;;;;5.88;1.33;;;11.50;99.90;;;;;;5026272;28;20026;-79
2024/03/19 07:53:17;;;;;;;7.57;1.50;;;11.50;99.90;;;;;;5025283;28;20028;-79
2024/03/19 07:55:44;;;;;;;3.05;1.25;;;11.60;99.90;;;;;;5024640;28;20441;-79
2024/03/19 07:58:09;;;;;;;6.22;1.00;;;11.60;99.90;;;;;;5025920;28;20021;-79
2024/03/19 08:00:37;;;;;;;11.65;2.50;;;11.70;99.90;;;;;;5024819;28;20025;-79
2024/03/19 08:03:04;;;;;;;10.15;1.55;;;11.70;99.90;;;;;;5024631;28;20033;-79
2024/03/19 08:05:29;;;;;;;3.10;1.00;;;11.70;99.90;;;;;;5023914;28;20020;-79
2024/03/19 08:07:56;;;;;;;7.22;1.40;;;11.80;99.90;;;;;;5025131;28;20041;-80
2024/03/19 08:10:22;;;;;;;4.88;1.25;;;11.80;99.90;;;;;;5026607;28;20018;-79
2024/03/19 08:12:48;;;;;;;4.38;1.15;;;11.80;99.90;;;;;;5025780;28;20037;-79
2024/03/19 08:15:14;;;;;;;3.22;1.42;;;11.80;99.90;;;;;;5029231;28;20108;-79
2024/03/19 08:17:39;;;;;;;8.30;1.25;;;11.80;99.90;;;;;;5029665;28;20037;-79
2024/03/19 08:20:12;;;;;;;5.97;1.17;;;11.90;99.90;;;;;;5030057;28;20038;-79
2024/03/19 08:22:41;;;;;;;5.30;1.30;;;12.00;99.90;;;;;;5029884;28;20034;-79
2024/03/19 08:25:09;;;;;;;5.07;1.83;;;12.10;99.90;;;;;;5030135;28;20026;-79
2024/03/19 08:27:35;;;;;;;7.28;1.13;;;12.10;99.90;;;;;;5030329;28;20022;-79
2024/03/19 08:30:03;;;;;;;3.85;1.10;;;12.20;99.90;;;;;;5029237;28;20057;-79
2024/03/19 08:32:29;;;;;;;6.40;0.75;;;12.20;99.90;;;;;;5028609;28;20032;-79
2024/03/19 08:34:54;;;;;;;3.45;1.02;;;12.30;99.90;;;;;;5029923;28;20014;-79
2024/03/19 08:37:20;;;;;;;3.08;0.60;;;12.30;99.90;;;;;;5029967;28;20018;-79
2024/03/19 08:39:46;;;;;;;5.10;0.90;;;12.30;99.90;;;;;;5030263;28;20369;-80
2024/03/19 08:42:11;;;;;;;4.18;0.73;;;12.30;99.90;;;;;;5028951;28;20034;-80
2024/03/19 08:44:37;;;;;;;5.40;1.60;;;12.30;99.90;;;;;;5028300;28;20022;-79
2024/03/19 08:47:05;;;;;;;4.20;1.40;;;12.40;99.90;;;;;;5028271;28;20442;-79
2024/03/19 08:49:31;;;;;;;6.20;1.40;;;12.50;99.90;;;;;;5028321;28;20029;-79
2024/03/19 08:51:57;;;;;;;3.65;0.63;;;12.60;99.90;;;;;;5027632;28;20397;-79
2024/03/19 08:54:23;;;;;;;2.40;1.00;;;12.60;99.90;;;;;;5028399;28;20029;-79
2024/03/19 08:56:49;;;;;;;6.40;0.60;;;12.80;99.90;;;;;;5028079;28;20030;-79
2024/03/19 08:59:14;;;;;;;4.22;1.02;;;12.80;99.90;;;;;;5028851;28;20022;-79
2024/03/19 09:01:40;;;;;;;3.08;0.60;;;13.00;99.90;;;;;;5028743;28;20083;-79
2024/03/19 09:04:06;;;;;;;2.72;1.15;;;12.90;99.90;;;;;;5028241;28;20033;-79
2024/03/19 09:06:32;;;;;;;5.53;0.98;;;13.00;99.90;;;;;;5029497;28;20029;-79
2024/03/19 09:08:58;;;;;;;4.43;0.50;;;13.10;99.90;;;;;;5027592;28;20060;-79
2024/03/19 09:11:24;;;;;;;1.60;0.35;;;13.10;99.90;;;;;;5027720;28;20021;-79
2024/03/19 09:13:50;;;;;;;2.05;0.40;;;13.00;99.90;;;;;;5027536;28;20026;-79
2024/03/19 09:16:16;;;;;;;5.15;0.85;;;13.00;99.90;;;;;;5010905;28;20416;-79
2024/03/19 09:18:42;;;;;;;4.32;0.80;;;;;;;;;;5027292;28;20069;-79
2024/03/19 09:21:11;;;;;;;3.42;0.55;;;13.00;99.90;;;;;;5028435;28;20042;-79
2024/03/19 09:23:37;;;;;;;7.60;0.68;;;13.00;99.90;;;;;;5028503;28;20093;-79
2024/03/19 09:26:03;;;;;;;2.60;1.00;;;13.00;99.90;;;;;;5026787;28;20018;-79
2024/03/19 09:28:32;;;;;;;2.03;0.50;;;13.00;99.90;;;;;;5028049;28;20504;-79
2024/03/19 09:31:01;;;;;;;6.95;0.73;;;13.10;99.90;;;;;;5022353;28;20049;-79
2024/03/19 09:33:28;;;;;;;2.65;0.68;;;13.10;99.90;;;;;;5021365;28;20478;-81
2024/03/19 09:35:54;;;;;;;5.50;0.73;;;13.20;99.90;;;;;;5022435;28;20034;-81
2024/03/19 09:38:20;;;;;;;3.58;0.70;;;;;;;;;;5025565;28;20022;-80
2024/03/19 09:41:01;;;;;;;3.67;0.65;;;13.30;99.90;;;;;;5027814;28;20030;-80
2024/03/19 09:43:30;;;;;;;6.20;1.33;;;13.50;99.90;;;;;;5027344;28;20555;-80
2024/03/19 09:45:56;;;;;;;3.33;1.00;;;13.40;99.90;;;;;;5028100;28;20049;-80
2024/03/19 09:48:21;;;;;;;4.55;1.15;;;13.50;99.90;;;;;;5027834;28;20034;-80
2024/03/19 09:50:48;;;;;;;11.10;1.65;;;13.70;99.90;;;;;;5025725;28;20063;-80
2024/03/19 09:53:19;;;;;;;6.85;1.38;;;13.70;99.90;;;;;;5027017;28;20018;-81
2024/03/19 09:55:48;;;;;;;5.82;1.08;;;13.70;99.90;;;;;;5025879;28;20094;-81
2024/03/19 09:58:14;;;;;;;5.30;2.17;;;13.90;99.90;;;;;;5026868;28;20089;-80
2024/03/19 10:00:46;;;;;;;7.13;1.42;;;13.90;99.90;;;;;;5024836;28;20025;-80
2024/03/19 10:03:13;;;;;;;6.80;1.40;;;14.00;99.90;;;;;;5026312;28;20061;-79
2024/03/19 10:05:39;;;;;;;6.82;1.90;;;14.10;99.90;;;;;;5025184;28;20025;-80
2024/03/19 10:08:12;;;;;;;2.20;0.68;;;14.00;99.90;;;;;;5028215;28;20038;-80
2024/03/19 10:10:38;;;;;;;7.00;1.83;;;14.10;99.90;;;;;;5029075;28;20028;-80
2024/03/19 10:13:04;;;;;;;5.75;1.60;;;14.10;99.90;;;;;;5028505;28;20046;-80
2024/03/19 10:15:29;;;;;;;8.85;2.53;;;14.20;99.90;;;;;;5030220;28;20030;-80
2024/03/19 10:17:58;;;;;;;6.05;1.13;;;14.20;99.90;;;;;;5029893;28;20034;-80
2024/03/19 10:20:27;;;;;;;3.20;1.25;;;14.50;99.90;;;;;;5028325;28;20030;-81
2024/03/19 10:22:53;;;;;;;4.72;1.83;;;14.50;99.90;;;;;;5026788;28;20017;-81
2024/03/19 10:25:18;;;;;;;3.60;1.33;;;14.70;99.90;;;;;;5027018;28;20018;-80
2024/03/19 10:27:46;;;;;;;5.45;1.75;;;14.90;99.90;;;;;;5027370;28;20026;-80
2024/03/19 10:30:17;;;;;;;6.50;1.88;;;15.30;99.90;;;;;;5027210;28;20076;-80
2024/03/19 10:32:44;;;;;;;8.40;1.55;;;15.40;99.90;;;;;;5027193;28;20034;-81
2024/03/19 10:35:17;;;;;;;5.33;1.40;;;15.50;99.90;;;;;;5029411;28;20037;-80
2024/03/19 10:37:43;;;;;;;10.32;2.13;;;15.60;99.90;;;;;;5026641;28;20013;-80
2024/03/19 10:40:13;;;;;;;6.25;1.30;;;16.10;99.90;;;;;;5027873;28;20021;-81
2024/03/19 10:42:41;;;;;;;3.28;1.20;;;16.10;99.90;;;;;;5029678;28;20371;-80
2024/03/19 10:45:18;;;;;;;4.55;0.75;;;16.60;99.90;;;;;;5021602;28;20478;-80
2024/03/19 10:47:44;;;;;;;7.40;0.57;;;16.60;99.90;;;;;;5018101;28;20419;-80
2024/03/19 10:50:14;;;;;;;1.50;0.38;;;16.70;99.90;;;;;;5018766;28;20495;-80
2024/03/19 10:52:49;;;;;;;5.28;0.68;;;16.70;99.90;;;;;;5019787;28;20072;-80
2024/03/19 10:55:17;;;;;;;5.18;0.30;;;16.80;99.90;;;;;;5019529;28;20029;-80
2024/03/19 10:57:45;;;;;;;5.68;0.35;;;16.80;99.90;;;;;;5018540;28;20022;-81
2024/03/19 11:00:23;;;;;;;3.00;0.10;;;16.90;99.90;;;;;;5018519;28;20072;-80
2024/03/19 11:02:50;;;;;;;2.58;0.57;;;16.90;99.90;;;;;;5020166;28;20030;-80
2024/03/19 11:05:20;;;;;;;1.30;0.32;;;16.90;99.90;;;;;;5018833;28;20476;-80
2024/03/19 11:07:50;;;;;;;6.63;0.20;;;17.00;99.90;;;;;;5019262;28;20508;-80
2024/03/19 11:10:26;;;;;;;2.35;0.20;;;17.00;99.90;;;;;;5018254;28;20033;-80
2024/03/19 11:12:57;;;;;;;5.18;0.10;;;17.40;99.90;;;;;;5017784;28;20044;-80
2024/03/19 11:15:22;;;;;;;7.55;1.15;;;17.60;99.90;;;;;;5018396;28;20053;-80
2024/03/19 11:17:48;;;;;;;3.78;0.38;;;17.90;99.90;;;;;;5018623;28;20033;-80
2024/03/19 11:20:17;;;;;;;2.20;0.28;;;17.90;99.90;;;;;;5017028;28;20049;-80
2024/03/19 11:22:46;;;;;;;1.67;0.03;;;17.90;99.90;;;;;;5016710;28;20053;-79
2024/03/19 11:25:14;;;;;;;3.58;0.00;;;17.80;99.90;;;;;;5017730;28;20076;-79
2024/03/19 11:27:50;;;;;;;3.30;0.87;;;17.70;99.90;;;;;;5019192;28;20053;-80
2024/03/19 11:30:17;;;;;;;2.22;0.10;;;17.70;99.90;;;;;;5016686;28;20280;-80
2024/03/19 11:32:45;;;;;;;2.63;0.00;;;17.70;99.90;;;;;;5017324;28;20052;-80
2024/03/19 11:35:19;;;;;;;2.30;0.70;;;17.70;99.90;;;;;;5017655;28;20005;-79
2024/03/19 11:37:49;;;;;;;2.03;0.20;;;17.60;99.90;;;;;;5017024;28;20124;-79
2024/03/19 11:40:16;;;;;;;2.72;0.25;;;17.70;99.90;;;;;;5017064;28;20034;-80
2024/03/19 11:42:42;;;;;;;3.72;0.10;;;17.70;99.90;;;;;;5017362;28;20164;-79
2024/03/19 11:45:15;;;;;;;2.92;0.08;;;17.60;99.90;;;;;;5017255;28;20047;-80
2024/03/19 11:47:44;;;;;;;3.63;0.10;;;17.60;99.90;;;;;;5016975;28;20014;-80
2024/03/19 11:50:18;;;;;;;3.88;0.10;;;17.60;99.90;;;;;;5020333;28;20025;-80
2024/03/19 11:52:48;;;;;;;2.83;0.00;;;17.60;99.90;;;;;;5020595;28;20037;-80
2024/03/19 11:55:16;;;;;;;2.53;0.05;;;17.60;99.90;;;;;;5021033;28;20032;-80
2024/03/19 11:57:42;;;;;;;5.63;0.23;;;17.60;99.90;;;;;;5020589;28;20076;-80
2024/03/19 12:00:12;;;;;;;2.53;0.22;;;18.40;99.90;;;;;;5020107;28;20018;-81
2024/03/19 12:02:42;;;;;;;7.20;0.68;;;18.40;99.90;;;;;;5021263;28;20116;-80
2024/03/19 12:05:16;;;;;;;2.47;0.00;;;18.90;99.90;;;;;;5020279;28;20114;-80
2024/03/19 12:07:49;;;;;;;2.80;0.35;;;19.10;99.90;;;;;;5020397;28;20060;-81
2024/03/19 12:10:22;;;;;;;2.70;0.47;;;18.80;99.90;;;;;;5021121;28;20076;-81
2024/03/19 12:12:52;;;;;;;3.80;0.20;;;18.80;99.90;;;;;;5019469;28;20207;-80
2024/03/19 12:15:20;;;;;;;4.05;0.77;;;18.60;99.90;;;;;;5021311;28;20021;-80
2024/03/19 12:17:46;;;;;;;3.63;0.20;;;18.10;99.90;;;;;;5020667;28;20014;-80
2024/03/19 12:20:12;;;;;;;3.28;0.43;;;17.70;99.90;;;;;;5021247;28;20421;-80
2024/03/19 12:22:39;;;;;;;3.28;0.00;;;17.30;99.90;;;;;;5020729;28;20026;-80
2024/03/19 12:25:11;;;;;;;3.55;0.22;;;17.30;99.90;;;;;;5019688;28;20482;-80
2024/03/19 12:27:40;;;;;;;3.30;0.10;;;17.30;99.90;;;;;;5019994;28;20030;-80
2024/03/19 12:30:25;;;;;;;5.10;0.30;;;17.40;99.90;;;;;;5019394;28;20041;-80
2024/03/19 12:33:10;;;;;;;2.63;0.20;;;17.40;99.90;;;;;;5020164;28;20076;-79
2024/03/19 12:35:38;;;;;;;4.28;0.13;;;17.30;99.90;;;;;;5019622;28;20022;-80
2024/03/19 12:38:07;;;;;;;4.50;1.02;;;17.10;99.90;;;;;;5021915;28;20034;-80
2024/03/19 12:40:32;;;;;;;4.13;0.00;;;17.10;99.90;;;;;;5020299;28;20109;-80
2024/03/19 12:42:58;;;;;;;5.40;0.65;;;17.00;99.90;;;;;;5020888;28;20572;-79
2024/03/19 12:45:24;;;;;;;9.88;0.20;;;17.00;99.90;;;;;;5019988;28;20057;-80
2024/03/19 12:47:50;;;;;;;2.03;0.03;;;17.20;99.90;;;;;;5021082;28;20014;-80
2024/03/19 12:50:18;;;;;;;2.25;0.35;;;17.70;99.90;;;;;;5019379;28;20113;-80
2024/03/19 12:52:44;;;;;;;2.93;0.00;;;18.20;99.90;;;;;;5019315;28;20018;-80
2024/03/19 12:55:10;;;;;;;1.92;0.20;;;18.50;99.90;;;;;;5020316;28;20037;-80